Main page
Satellite images 15-day forecastsClimateMarine weather Cyclones Lightning AirportsFAQ Newsletter About
Weather : Europe Africa North America South America Asia Australia-Oceania Others
Languages Contact

London, England

City airport

latitude: 51-30N, longitude: 000-03E, elevation: 5 m


METAR: EGLC 241720Z 09013KT CAVOK 27/08 Q1016
short-TAF: EGLC 241659Z 2418/2421 08013KT 9999 FEW040
long-TAF: missing

Time: 18:43 (17:43 UTC)

Current weather observation

The report was made 23 minutes ago, at 17:20 UTC  
Wind 13 kt from the East
Temperature 27°C
Humidity 30%
Pressure 1016 hPa
Visibility 10 km or more
no clouds below 1500 m and no cumulonimbus

Change units

Forecast

The report was made 28 minutes ago, at 17:15 UTC  
Forecast valid from 24 at 18 UTC to 24 at 21 UTC
Wind 13 kt from the East
Visibility 10 km or more
Few clouds at a height of 4000 ft
The information on this site is subject to a disclaimer
Weather : Europe Africa North America South America Asia Australia-Oceania Others
Satellite images 15-day forecastsClimateMarine weather Cyclones Lightning AirportsFAQ Languages Contact Newsletter About